Aviation Digital Data Service (ADDS)

Output produced by METARs form (1459 UTC 27 November 2021)
found at http://www.aviationweather.gov/metar/data/
 
TAPA 271400Z 09008KT 040V150 9999 FEW020 29/21 Q1014 NOSIG
TAPA 271300Z 09006KT 030V140 9999 FEW020 29/21 Q1014 NOSIG
TAPA 271200Z VRB02KT 9999 FEW020 27/22 Q1014 NOSIG
TAPA 271100Z 00000KT 9999 FEW018 23/21 Q1013 NOSIG
TAF TAPA 270500Z 2706/2806 VRB02KT 9999 SCT020
       
TRPG 271400Z 10011KT 050V130 9999 FEW024 28/23 Q1015
TRPG 271300Z 10008KT 9999 FEW024 27/23 Q1015
TRPG 271200Z 10008KT 9999 FEW024 26/22 Q1014
TRPG 271100Z 13005KT 9999 FEW024 25/22 Q1014
TKPK 271400Z 09006KT 9999 FEW022 29/22 Q1015
TKPK 271300Z 10005KT 9999 FEW019 29/22 Q1014
TKPK 271200Z 12004KT 9999 FEW017 28/22 Q1014
TKPK 271100Z VRB02KT 9999 FEW016 25/22 Q1013
TKPK 271145Z 2712/2812 11008KT P6SM FEW022 
     FM272200 06005KT P6SM FEW022 AMD NOT SKED 2802/2811
       
TKPN 271400Z 15005KT 9999 FEW018TCU 29/24 Q1015
TKPN 271300Z 15004KT 9999 FEW016TCU 28/24 Q1013
TKPN 271200Z 15004KT 9999 FEW016TCU 26/24 Q1013
TKPN 271100Z 14004KT 9999 FEW016TCU 25/24 Q1013
TQPF 271400Z 14006KT 9999 FEW018 27/24 Q1015
TQPF 271300Z 17005KT 9999 FEW018 27/25 Q1015
TQPF 271200Z 17005KT 9999 FEW016 26/24 Q1014
TQPF 271100Z 11003KT 9999 FEW016 SCT034 25/24 Q1013
TUPJ 271400Z 09010KT 10SM VCSH BKN018 28/24 A2999 RMK Q1015 VIS16KM
TUPJ 271300Z 07009KT 10SM VCSH BKN018 BKN048 28/24 A2998 RMK Q1015 VIS16KM
TUPJ 271200Z 06008KT 10 SM VCSH SCT018 SCT048 27/23 A2995 RMK Q1014 VIS16KM